createdAt,value
2023-03-10T00:02:20.185Z,30.77
2023-03-10T00:04:51.175Z,37.63
2023-03-10T00:07:19.430Z,28.83
2023-03-10T00:09:47.887Z,29.70
2023-03-10T00:12:16.038Z,35.47
2023-03-10T00:14:45.648Z,36.77
2023-03-10T00:17:13.782Z,28.70
2023-03-10T00:19:41.986Z,31.87
2023-03-10T00:22:10.124Z,30.73
2023-03-10T00:24:38.320Z,26.13
2023-03-10T00:27:06.568Z,28.33
2023-03-10T00:29:34.716Z,25.93
2023-03-10T00:32:04.269Z,24.83
2023-03-10T00:34:32.445Z,26.97
2023-03-10T00:37:00.589Z,26.20
2023-03-10T00:39:28.790Z,26.37
2023-03-10T00:41:56.961Z,24.00
2023-03-10T00:44:25.161Z,26.07
2023-03-10T00:46:53.703Z,29.07
2023-03-10T00:49:23.216Z,28.00
2023-03-10T00:51:51.417Z,30.97
2023-03-10T00:54:19.609Z,29.77
2023-03-10T00:56:47.790Z,30.80
2023-03-10T00:59:15.908Z,30.63
2023-03-10T01:01:44.379Z,36.97
2023-03-10T01:04:13.722Z,36.80
2023-03-10T01:06:44.537Z,29.83
2023-03-10T01:09:12.763Z,32.50
2023-03-10T01:11:41.011Z,35.07
2023-03-10T01:14:10.678Z,37.33
2023-03-10T01:16:38.885Z,29.93
2023-03-10T01:19:07.501Z,32.07
2023-03-10T01:21:36.844Z,35.70
2023-03-10T01:24:07.458Z,33.07
2023-03-10T01:26:35.600Z,32.53
2023-03-10T01:29:03.835Z,30.30
2023-03-10T01:31:32.067Z,27.47
2023-03-10T01:34:00.272Z,28.37
2023-03-10T01:36:28.729Z,26.17
2023-03-10T01:38:57.466Z,22.40
2023-03-10T01:41:27.020Z,20.73
2023-03-10T01:43:55.939Z,20.60
2023-03-10T01:46:43.086Z,21.33
2023-03-10T01:49:16.974Z,21.30
2023-03-10T01:51:47.545Z,23.83
2023-03-10T01:54:17.750Z,22.43
2023-03-10T01:56:47.692Z,21.30
2023-03-10T01:59:16.214Z,22.87
2023-03-10T02:01:44.528Z,22.83
2023-03-10T02:04:15.813Z,26.00
2023-03-10T02:06:44.408Z,30.27
2023-03-10T02:09:12.788Z,30.03
2023-03-10T02:11:40.994Z,28.37
2023-03-10T02:14:10.550Z,28.40
2023-03-10T02:16:38.824Z,27.67
2023-03-10T02:19:10.760Z,21.07
2023-03-10T02:21:42.906Z,21.27
2023-03-10T02:24:14.779Z,24.23
2023-03-10T02:26:47.437Z,21.33
2023-03-10T02:29:19.494Z,29.07
2023-03-10T02:31:48.723Z,36.43
2023-03-10T02:34:16.956Z,30.80
2023-03-10T02:36:45.117Z,28.00
2023-03-10T02:39:13.318Z,33.77
2023-03-10T02:41:44.263Z,38.47
2023-03-10T02:44:14.916Z,38.20
2023-03-10T02:46:44.816Z,36.80
2023-03-10T02:49:13.025Z,30.50
2023-03-10T02:51:42.703Z,27.03
2023-03-10T02:54:11.371Z,23.73
2023-03-10T02:56:39.686Z,27.70
2023-03-10T02:59:08.969Z,28.57
2023-03-10T03:01:37.188Z,25.93
2023-03-10T03:04:06.907Z,28.73
2023-03-10T03:06:35.799Z,30.97
2023-03-10T03:09:04.377Z,37.77
2023-03-10T03:11:32.553Z,31.37
2023-03-10T03:14:00.761Z,27.47
2023-03-10T03:16:28.934Z,27.53
2023-03-10T03:18:57.152Z,26.30
2023-03-10T03:21:27.417Z,24.93
2023-03-10T03:23:55.663Z,22.53
2023-03-10T03:26:25.199Z,22.13
2023-03-10T03:28:53.349Z,23.70
2023-03-10T03:31:22.462Z,23.30
2023-03-10T03:33:50.973Z,26.90
2023-03-10T03:36:19.481Z,30.50
2023-03-10T03:38:49.048Z,31.03
2023-03-10T03:41:17.343Z,28.93
2023-03-10T03:43:45.504Z,31.63
2023-03-10T03:46:13.743Z,28.97
2023-03-10T03:48:42.048Z,24.40
2023-03-10T03:51:10.249Z,24.70
2023-03-10T03:53:38.486Z,19.73
2023-03-10T03:56:08.569Z,25.03
2023-03-10T03:58:36.795Z,20.87
2023-03-10T04:01:05.119Z,20.47
2023-03-10T04:03:33.413Z,18.83
2023-03-10T04:06:01.562Z,18.10
2023-03-10T04:08:29.772Z,23.17
2023-03-10T04:10:58.052Z,24.87
2023-03-10T04:13:27.549Z,25.23
2023-03-10T04:15:58.900Z,28.63
2023-03-10T04:18:27.425Z,25.73
2023-03-10T04:20:55.622Z,21.80
2023-03-10T04:23:23.882Z,21.07
2023-03-10T04:25:52.021Z,23.47
2023-03-10T04:28:20.252Z,24.47
2023-03-10T04:30:49.779Z,22.50
2023-03-10T04:33:17.921Z,34.00
2023-03-10T04:35:48.837Z,32.23
2023-03-10T04:38:17.094Z,29.77
2023-03-10T04:40:45.266Z,23.47
2023-03-10T04:43:13.485Z,27.50
2023-03-10T04:45:41.656Z,29.80
2023-03-10T04:48:11.133Z,27.53
2023-03-10T04:50:39.263Z,29.60
2023-03-10T04:53:07.443Z,30.90
2023-03-10T04:55:35.677Z,27.87
2023-03-10T04:58:03.813Z,29.93
2023-03-10T05:00:32.230Z,27.50
2023-03-10T05:03:00.513Z,26.63
2023-03-10T05:05:30.081Z,24.50
2023-03-10T05:07:58.228Z,23.80
2023-03-10T05:10:26.380Z,29.30
2023-03-10T05:12:54.515Z,27.93
2023-03-10T05:15:22.792Z,25.67
2023-03-10T05:17:50.987Z,21.93
2023-03-10T05:20:19.426Z,23.03
2023-03-10T05:22:48.994Z,25.77
2023-03-10T05:25:17.155Z,29.40
2023-03-10T05:27:45.344Z,30.70
2023-03-10T05:30:15.887Z,39.37
2023-03-10T05:32:44.251Z,31.50
2023-03-10T05:35:12.811Z,27.27
2023-03-10T05:37:41.895Z,28.93
2023-03-10T05:40:14.145Z,27.20
2023-03-10T05:42:42.412Z,27.10
2023-03-10T05:45:12.243Z,31.50
2023-03-10T05:47:40.448Z,33.07
2023-03-10T05:50:09.145Z,31.77
2023-03-10T05:52:38.550Z,33.13
2023-03-10T05:55:07.594Z,25.70
2023-03-10T05:57:37.185Z,25.67
2023-03-10T06:00:05.916Z,28.67
2023-03-10T06:02:34.077Z,29.00
2023-03-10T06:05:02.344Z,29.00
2023-03-10T06:07:30.530Z,25.87
2023-03-10T06:09:58.858Z,25.63
2023-03-10T06:12:27.057Z,23.53
2023-03-10T06:14:56.577Z,23.23
2023-03-10T06:17:24.782Z,25.23
2023-03-10T06:19:52.941Z,27.50
2023-03-10T06:22:21.127Z,22.90
2023-03-10T06:24:49.281Z,23.97
2023-03-10T06:27:17.438Z,28.00
2023-03-10T06:29:46.903Z,28.40
2023-03-10T06:32:16.491Z,31.30
2023-03-10T06:34:44.649Z,30.43
2023-03-10T06:37:12.786Z,27.80
2023-03-10T06:39:41.140Z,31.17
2023-03-10T06:42:09.685Z,27.97
2023-03-10T06:44:37.887Z,35.37
2023-03-10T06:47:06.154Z,35.50
2023-03-10T06:49:35.799Z,31.17
2023-03-10T06:52:03.969Z,34.93
2023-03-10T06:54:32.089Z,35.60
2023-03-10T06:57:00.272Z,30.77
2023-03-10T06:59:28.601Z,28.53
2023-03-10T07:01:56.740Z,26.53
2023-03-10T07:04:24.928Z,20.60
2023-03-10T07:06:54.544Z,25.97
2023-03-10T07:09:22.681Z,40.40
2023-03-10T07:11:50.817Z,46.03
2023-03-10T07:14:18.990Z,33.37
2023-03-10T07:16:47.242Z,25.13
2023-03-10T07:19:15.810Z,27.53
2023-03-10T07:21:44.044Z,28.47
2023-03-10T07:24:13.582Z,29.33
2023-03-10T07:26:42.078Z,27.33
2023-03-10T07:29:10.322Z,29.00
2023-03-10T07:31:38.640Z,27.77
2023-03-10T07:34:06.819Z,26.77
2023-03-10T07:36:35.052Z,26.90
2023-03-10T07:39:03.237Z,23.50
2023-03-10T07:41:32.829Z,27.70
2023-03-10T07:44:00.976Z,61.73
2023-03-10T07:46:29.667Z,51.27
2023-03-10T07:49:00.015Z,38.80
2023-03-10T07:51:28.285Z,39.43
2023-03-10T07:53:56.502Z,43.97
2023-03-10T07:56:24.722Z,38.70
2023-03-10T07:58:54.276Z,38.03
2023-03-10T08:01:22.999Z,34.83
2023-03-10T08:03:51.287Z,33.93
2023-03-10T08:06:20.960Z,38.27
2023-03-10T08:08:49.349Z,37.77
2023-03-10T08:11:17.677Z,45.83
2023-03-10T08:13:47.547Z,48.77
2023-03-10T08:16:17.851Z,38.60
2023-03-10T08:18:46.121Z,37.33
2023-03-10T08:21:14.329Z,43.80
2023-03-10T08:23:42.563Z,47.10
2023-03-10T08:26:12.703Z,33.30
2023-03-10T08:28:41.060Z,50.83
2023-03-10T08:31:10.354Z,45.67
2023-03-10T08:33:40.164Z,36.80
2023-03-10T08:36:09.573Z,36.60
2023-03-10T08:38:38.469Z,36.70
2023-03-10T08:41:10.983Z,26.73
2023-03-10T08:43:39.385Z,35.60
2023-03-10T08:46:08.797Z,36.53
2023-03-10T08:48:37.302Z,45.37
2023-03-10T08:51:07.341Z,40.07
2023-03-10T08:53:36.412Z,48.47
2023-03-10T08:56:05.195Z,47.77
2023-03-10T08:58:33.603Z,51.47
2023-03-10T09:01:01.785Z,42.93
2023-03-10T09:03:31.782Z,40.27
2023-03-10T09:06:00.318Z,35.50
2023-03-10T09:08:29.896Z,39.73
2023-03-10T09:10:58.097Z,33.80
2023-03-10T09:13:26.350Z,31.83
2023-03-10T09:15:54.673Z,37.57
2023-03-10T09:18:22.880Z,41.07
2023-03-10T09:20:51.362Z,45.63
2023-03-10T09:23:19.788Z,48.50
2023-03-10T09:25:49.369Z,55.73
2023-03-10T09:28:18.808Z,54.07
2023-03-10T09:30:48.174Z,49.83
2023-03-10T09:33:17.118Z,41.90
2023-03-10T09:35:52.952Z,43.07
2023-03-10T09:38:31.101Z,41.23
2023-03-10T09:41:08.418Z,36.40
2023-03-10T09:43:39.065Z,39.20
2023-03-10T09:46:10.317Z,44.77
2023-03-10T09:48:42.432Z,37.13
2023-03-10T09:51:15.966Z,47.43
2023-03-10T09:53:59.061Z,62.20
2023-03-10T09:56:31.553Z,58.20
2023-03-10T09:59:01.577Z,55.03
2023-03-10T10:01:31.346Z,51.40
2023-03-10T10:04:01.680Z,50.57
2023-03-10T10:06:32.221Z,42.63
2023-03-10T10:09:05.006Z,36.63
2023-03-10T10:11:36.484Z,31.27
2023-03-10T10:14:22.400Z,47.60
2023-03-10T10:17:00.556Z,44.97
2023-03-10T10:19:29.817Z,30.60
2023-03-10T10:22:00.446Z,41.50
2023-03-10T10:24:28.852Z,41.43
2023-03-10T10:26:58.383Z,49.63
2023-03-10T10:29:27.517Z,65.03
2023-03-10T10:32:09.292Z,51.43
2023-03-10T10:34:38.382Z,43.10
2023-03-10T10:37:21.980Z,30.53
2023-03-10T10:39:51.453Z,18.87
2023-03-10T10:42:24.177Z,20.43
2023-03-10T10:44:54.251Z,25.43
2023-03-10T10:47:27.294Z,33.33
2023-03-10T10:49:56.591Z,29.73
2023-03-10T10:52:25.699Z,35.37
2023-03-10T10:54:56.912Z,32.67
2023-03-10T10:57:28.980Z,39.10
2023-03-10T10:59:57.153Z,36.90
2023-03-10T11:02:31.709Z,35.20
2023-03-10T11:05:08.802Z,39.97
2023-03-10T11:07:37.019Z,35.87
2023-03-10T11:10:08.078Z,50.57
2023-03-10T11:12:40.410Z,47.40
2023-03-10T11:15:14.404Z,36.20
2023-03-10T11:17:45.560Z,42.17
2023-03-10T11:20:24.235Z,55.67
2023-03-10T11:22:54.956Z,46.47
2023-03-10T11:25:26.383Z,56.67
2023-03-10T11:28:01.262Z,109.57
2023-03-10T11:30:32.736Z,85.43
2023-03-10T11:33:06.700Z,49.17
2023-03-10T11:35:43.689Z,50.00
2023-03-10T11:38:29.888Z,48.67
2023-03-10T11:40:59.497Z,49.83
2023-03-10T11:43:33.627Z,50.57
2023-03-10T11:46:05.526Z,44.23
2023-03-10T11:48:38.322Z,31.33
2023-03-10T11:51:07.223Z,34.03
2023-03-10T11:53:37.351Z,27.57
2023-03-10T11:56:06.202Z,22.30
2023-03-10T11:58:41.279Z,19.70
2023-03-10T12:01:10.866Z,17.40
2023-03-10T12:03:42.708Z,20.47
2023-03-10T12:06:13.705Z,18.63
2023-03-10T12:08:42.315Z,28.53
2023-03-10T12:11:15.281Z,32.47
2023-03-10T12:13:46.550Z,32.90
2023-03-10T12:16:17.775Z,22.87
2023-03-10T12:18:46.070Z,18.87
2023-03-10T12:21:16.400Z,17.60
2023-03-10T12:23:45.501Z,13.03
2023-03-10T12:26:13.725Z,16.43
2023-03-10T12:28:42.038Z,14.70
2023-03-10T12:31:12.479Z,19.27
2023-03-10T12:33:52.378Z,14.33
2023-03-10T12:36:27.399Z,15.27
2023-03-10T12:38:57.477Z,15.87
2023-03-10T12:41:40.570Z,13.50
2023-03-10T12:44:27.450Z,17.63
2023-03-10T12:47:00.793Z,17.67
2023-03-10T12:49:32.567Z,19.13
2023-03-10T12:52:08.524Z,14.67
2023-03-10T12:55:03.984Z,17.60
2023-03-10T12:57:34.502Z,17.30
2023-03-10T13:00:06.169Z,18.57
2023-03-10T13:02:39.155Z,17.07
2023-03-10T13:05:09.077Z,13.60
2023-03-10T13:07:37.667Z,15.47
2023-03-10T13:10:06.280Z,15.33
2023-03-10T13:12:38.393Z,12.60
2023-03-10T13:15:08.822Z,15.03
2023-03-10T13:17:38.411Z,17.43
2023-03-10T13:20:08.490Z,29.40
2023-03-10T13:22:37.013Z,33.33
2023-03-10T13:25:07.722Z,48.63
2023-03-10T13:27:36.341Z,52.33
2023-03-10T13:30:06.509Z,69.30
2023-03-10T13:32:35.051Z,71.50
2023-03-10T13:35:16.568Z,72.50
2023-03-10T13:37:45.148Z,99.80
2023-03-10T13:40:18.109Z,136.70
2023-03-10T13:42:49.085Z,136.17
2023-03-10T13:45:24.291Z,128.60
2023-03-10T13:47:52.931Z,141.77
2023-03-10T13:50:22.774Z,148.60
2023-03-10T13:52:54.479Z,154.37
2023-03-10T13:55:22.770Z,141.67
2023-03-10T13:57:51.702Z,130.80
2023-03-10T14:00:21.468Z,140.60
2023-03-10T14:02:50.797Z,109.40
2023-03-10T14:05:37.660Z,93.97
2023-03-10T14:08:07.609Z,98.40
2023-03-10T14:10:35.843Z,102.53
2023-03-10T14:13:04.029Z,133.93
2023-03-10T14:15:38.516Z,108.03
2023-03-10T14:18:19.449Z,106.13
2023-03-10T14:20:48.370Z,124.87
2023-03-10T14:23:28.338Z,102.83
2023-03-10T14:25:57.241Z,103.80
2023-03-10T14:28:26.876Z,104.03
2023-03-10T14:30:55.614Z,111.93
2023-03-10T14:33:24.030Z,131.97
2023-03-10T14:35:52.568Z,131.23
2023-03-10T14:38:20.928Z,142.27
2023-03-10T14:40:51.294Z,126.97
2023-03-10T14:43:20.937Z,125.43
2023-03-10T14:45:50.142Z,118.23
2023-03-10T14:48:19.157Z,105.37
2023-03-10T14:50:48.020Z,92.30
2023-03-10T14:53:16.847Z,86.93
2023-03-10T14:55:47.633Z,106.57
2023-03-10T14:58:18.455Z,87.63
2023-03-10T15:00:46.686Z,99.17
2023-03-10T15:03:15.227Z,78.30
2023-03-10T15:05:48.735Z,99.03
2023-03-10T15:08:17.478Z,126.50
2023-03-10T15:10:48.210Z,169.57
2023-03-10T15:13:18.530Z,234.17
2023-03-10T15:15:47.719Z,279.00
2023-03-10T15:18:16.649Z,342.87
2023-03-10T15:20:45.346Z,393.40
2023-03-10T15:23:17.087Z,379.73
2023-03-10T15:25:46.498Z,451.43
2023-03-10T15:28:15.115Z,449.27
2023-03-10T15:30:44.696Z,491.23
2023-03-10T15:33:12.965Z,512.57
2023-03-10T15:35:41.494Z,563.97
2023-03-10T15:38:09.961Z,542.07
2023-03-10T15:40:38.992Z,565.13
2023-03-10T15:43:07.367Z,594.57
2023-03-10T15:45:36.662Z,612.23
2023-03-10T15:48:06.430Z,625.53
2023-03-10T15:50:34.586Z,615.03
2023-03-10T15:53:02.934Z,662.23
2023-03-10T15:55:31.254Z,710.30
2023-03-10T15:57:59.460Z,735.07
2023-03-10T16:00:28.450Z,783.10
2023-03-10T16:02:56.704Z,793.40
2023-03-10T16:05:26.345Z,749.37
2023-03-10T16:07:54.617Z,745.60
2023-03-10T16:10:22.961Z,598.53
2023-03-10T16:12:51.518Z,528.30
2023-03-10T16:15:19.807Z,397.77
2023-03-10T16:17:48.110Z,393.73
2023-03-10T16:20:19.068Z,353.13
2023-03-10T16:22:48.759Z,293.40
2023-03-10T16:25:17.874Z,273.53
2023-03-10T16:27:46.794Z,257.60
2023-03-10T16:30:15.699Z,126.83
2023-03-10T16:32:46.060Z,108.43
2023-03-10T16:35:14.449Z,55.10
2023-03-10T16:37:42.849Z,52.27
2023-03-10T16:40:13.471Z,48.03
2023-03-10T16:42:45.467Z,48.73
2023-03-10T16:45:14.127Z,66.63
2023-03-10T16:47:44.120Z,67.43
2023-03-10T16:50:14.291Z,90.77
2023-03-10T16:52:43.268Z,87.07
2023-03-10T16:55:17.369Z,81.17
2023-03-10T16:57:46.216Z,116.13
2023-03-10T17:00:15.184Z,84.17
2023-03-10T17:02:43.333Z,51.70
2023-03-10T17:05:13.195Z,27.10
2023-03-10T17:07:54.699Z,9.60
2023-03-10T17:10:26.772Z,6.90
2023-03-10T17:12:54.997Z,5.93
2023-03-10T17:15:23.212Z,8.17
2023-03-10T17:17:51.938Z,4.23
2023-03-10T17:20:20.269Z,8.37
2023-03-10T17:22:48.517Z,7.47
2023-03-10T17:25:16.787Z,6.67
2023-03-10T17:27:46.419Z,5.77
2023-03-10T17:30:15.444Z,6.13
2023-03-10T17:32:45.185Z,6.93
2023-03-10T17:35:13.447Z,4.10
2023-03-10T17:37:41.743Z,5.60
2023-03-10T17:40:10.792Z,2.93
2023-03-10T17:42:39.120Z,6.80
2023-03-10T17:45:09.625Z,8.47
2023-03-10T17:47:38.038Z,9.53
2023-03-10T17:50:06.568Z,5.10
2023-03-10T17:52:34.787Z,8.27
2023-03-10T17:55:03.175Z,8.53
2023-03-10T17:57:31.314Z,11.50
2023-03-10T17:59:59.569Z,6.43
2023-03-10T18:02:29.183Z,1.60
2023-03-10T18:04:57.513Z,5.13
2023-03-10T18:07:25.894Z,3.67
2023-03-10T18:09:54.106Z,4.90
2023-03-10T18:12:22.299Z,6.17
2023-03-10T18:14:50.518Z,7.17
2023-03-10T18:17:18.727Z,6.83
2023-03-10T18:19:48.226Z,4.87
2023-03-10T18:22:16.413Z,7.60
2023-03-10T18:24:44.622Z,9.57
2023-03-10T18:27:12.880Z,2.63
2023-03-10T18:29:41.483Z,3.27
2023-03-10T18:32:09.953Z,7.77
2023-03-10T18:34:38.206Z,11.00
2023-03-10T18:37:07.906Z,9.97
2023-03-10T18:39:36.087Z,8.47
2023-03-10T18:42:04.291Z,5.27
2023-03-10T18:44:32.441Z,11.00
2023-03-10T18:47:00.600Z,10.13
2023-03-10T18:49:29.087Z,5.57
2023-03-10T18:51:57.289Z,7.90
2023-03-10T18:54:26.933Z,4.87
2023-03-10T18:56:55.091Z,6.93
2023-03-10T18:59:23.254Z,5.43
2023-03-10T19:01:51.474Z,11.23
2023-03-10T19:04:19.669Z,7.97
2023-03-10T19:06:47.907Z,7.07
2023-03-10T19:09:19.043Z,4.13
2023-03-10T19:11:50.346Z,9.63
2023-03-10T19:14:18.905Z,5.60
2023-03-10T19:16:49.902Z,6.43
2023-03-10T19:19:18.098Z,9.53
2023-03-10T19:21:46.416Z,3.67
2023-03-10T19:24:14.600Z,4.60
2023-03-10T19:26:43.385Z,7.83
2023-03-10T19:29:12.935Z,8.53
2023-03-10T19:31:41.364Z,5.27
2023-03-10T19:34:09.534Z,10.03
2023-03-10T19:36:37.778Z,11.20
2023-03-10T19:39:06.256Z,6.83
2023-03-10T19:41:34.554Z,9.33
2023-03-10T19:44:02.715Z,6.83
2023-03-10T19:46:32.281Z,3.53
2023-03-10T19:49:00.485Z,9.43
2023-03-10T19:51:29.637Z,2.33
2023-03-10T19:53:58.585Z,8.63
2023-03-10T19:56:27.101Z,8.20
2023-03-10T19:58:55.284Z,9.90
2023-03-10T20:01:25.385Z,8.33
2023-03-10T20:03:55.748Z,8.80
2023-03-10T20:06:24.529Z,6.13
2023-03-10T20:08:53.634Z,7.00
2023-03-10T20:11:22.272Z,5.57
2023-03-10T20:13:53.231Z,5.27
2023-03-10T20:16:24.000Z,4.93
2023-03-10T20:18:52.403Z,6.10
2023-03-10T20:21:21.934Z,4.33
2023-03-10T20:23:50.087Z,14.37
2023-03-10T20:26:19.263Z,7.80
2023-03-10T20:28:47.458Z,4.77
2023-03-10T20:31:18.896Z,7.43
2023-03-10T20:33:47.142Z,6.17
2023-03-10T20:36:15.896Z,9.90
2023-03-10T20:38:46.126Z,4.60
2023-03-10T20:41:15.217Z,11.80
2023-03-10T20:43:43.835Z,12.30
2023-03-10T20:46:12.089Z,11.80
2023-03-10T20:48:40.588Z,21.17
2023-03-10T20:51:08.796Z,5.73
2023-03-10T20:53:37.271Z,20.33
2023-03-10T20:56:08.980Z,11.73
2023-03-10T20:58:37.320Z,13.30
2023-03-10T21:01:05.838Z,11.43
2023-03-10T21:03:34.151Z,15.17
2023-03-10T21:06:02.296Z,14.13
2023-03-10T21:08:30.486Z,7.43
2023-03-10T21:10:58.675Z,8.13
2023-03-10T21:13:28.257Z,7.97
2023-03-10T21:15:56.442Z,7.07
2023-03-10T21:18:24.652Z,6.00
2023-03-10T21:20:52.860Z,7.37
2023-03-10T21:23:21.109Z,3.43
2023-03-10T21:25:49.294Z,4.33
2023-03-10T21:28:17.498Z,4.00
2023-03-10T21:30:47.024Z,3.23
2023-03-10T21:33:15.243Z,5.00
2023-03-10T21:35:43.466Z,3.37
2023-03-10T21:38:12.006Z,2.27
2023-03-10T21:40:40.212Z,4.77
2023-03-10T21:43:08.490Z,4.50
2023-03-10T21:45:37.445Z,5.63
2023-03-10T21:48:07.274Z,4.63
2023-03-10T21:50:35.495Z,6.90
2023-03-10T21:53:04.862Z,4.47
2023-03-10T21:55:34.359Z,7.67
2023-03-10T21:58:03.016Z,2.83
2023-03-10T22:00:31.283Z,6.13
2023-03-10T22:02:59.502Z,2.23
2023-03-10T22:05:29.262Z,4.63
2023-03-10T22:07:58.452Z,3.93
2023-03-10T22:10:26.860Z,2.63
2023-03-10T22:12:55.040Z,2.77
2023-03-10T22:15:24.276Z,4.93
2023-03-10T22:17:52.504Z,5.60
2023-03-10T22:20:22.034Z,5.20
2023-03-10T22:22:51.551Z,5.97
2023-03-10T22:25:20.173Z,3.77
2023-03-10T22:27:50.491Z,4.27
2023-03-10T22:30:18.957Z,4.57
2023-03-10T22:32:47.239Z,4.23
2023-03-10T22:35:15.523Z,4.87
2023-03-10T22:37:44.218Z,3.23
2023-03-10T22:40:16.285Z,7.37
2023-03-10T22:42:45.370Z,2.50
2023-03-10T22:45:17.281Z,3.03
2023-03-10T22:47:45.850Z,6.17
2023-03-10T22:50:15.162Z,1.53
2023-03-10T22:52:44.576Z,4.83
2023-03-10T22:55:15.709Z,4.60
2023-03-10T22:57:43.886Z,5.67
2023-03-10T23:00:14.173Z,3.47
2023-03-10T23:02:42.508Z,2.83
2023-03-10T23:05:10.813Z,3.63
2023-03-10T23:07:39.004Z,3.73
2023-03-10T23:10:07.539Z,5.77
2023-03-10T23:12:39.251Z,4.20
2023-03-10T23:15:15.389Z,1.90
2023-03-10T23:17:50.896Z,3.17
2023-03-10T23:20:19.270Z,2.40
2023-03-10T23:22:48.206Z,3.87
2023-03-10T23:25:18.733Z,3.93
2023-03-10T23:27:48.258Z,3.10
2023-03-10T23:30:16.678Z,6.93
2023-03-10T23:32:45.407Z,2.90
2023-03-10T23:35:13.978Z,5.63
2023-03-10T23:37:42.265Z,4.10
2023-03-10T23:40:11.974Z,4.07
2023-03-10T23:42:40.384Z,8.03
2023-03-10T23:45:12.026Z,3.10
2023-03-10T23:47:40.616Z,4.40
2023-03-10T23:50:09.953Z,4.30
2023-03-10T23:52:38.165Z,4.30
2023-03-10T23:55:06.794Z,3.97
2023-03-10T23:57:35.026Z,2.23
